sensor_id;sensor_type;location;lat;lon;timestamp;P1;durP1;ratioP1;P2;durP2;ratioP2
9098;SDS011;4585;51.414;6.776;2022-07-29T00:02:10;8.67;;;1.50;;
9098;SDS011;4585;51.414;6.776;2022-07-29T00:04:36;2.40;;;1.40;;
9098;SDS011;4585;51.414;6.776;2022-07-29T00:07:02;1.43;;;1.20;;
9098;SDS011;4585;51.414;6.776;2022-07-29T00:09:29;2.50;;;1.23;;
9098;SDS011;4585;51.414;6.776;2022-07-29T00:11:56;3.17;;;1.47;;
9098;SDS011;4585;51.414;6.776;2022-07-29T00:14:25;6.10;;;1.40;;
9098;SDS011;4585;51.414;6.776;2022-07-29T00:16:51;3.67;;;1.40;;
9098;SDS011;4585;51.414;6.776;2022-07-29T00:19:17;2.40;;;1.30;;
9098;SDS011;4585;51.414;6.776;2022-07-29T00:21:42;2.83;;;1.50;;
9098;SDS011;4585;51.414;6.776;2022-07-29T00:24:08;4.17;;;1.47;;
9098;SDS011;4585;51.414;6.776;2022-07-29T00:26:34;3.57;;;1.50;;
9098;SDS011;4585;51.414;6.776;2022-07-29T00:29:00;3.33;;;1.33;;
9098;SDS011;4585;51.414;6.776;2022-07-29T00:31:27;2.10;;;1.23;;
9098;SDS011;4585;51.414;6.776;2022-07-29T00:33:53;3.67;;;1.47;;
9098;SDS011;4585;51.414;6.776;2022-07-29T00:36:19;8.27;;;1.87;;
9098;SDS011;4585;51.414;6.776;2022-07-29T00:38:48;4.73;;;1.37;;
9098;SDS011;4585;51.414;6.776;2022-07-29T00:41:15;3.00;;;1.40;;
9098;SDS011;4585;51.414;6.776;2022-07-29T00:43:42;4.43;;;1.53;;
9098;SDS011;4585;51.414;6.776;2022-07-29T00:46:08;2.10;;;1.47;;
9098;SDS011;4585;51.414;6.776;2022-07-29T00:48:33;2.00;;;1.20;;
9098;SDS011;4585;51.414;6.776;2022-07-29T00:51:00;4.53;;;1.50;;
9098;SDS011;4585;51.414;6.776;2022-07-29T00:53:27;3.30;;;1.37;;
9098;SDS011;4585;51.414;6.776;2022-07-29T00:55:54;3.23;;;1.50;;
9098;SDS011;4585;51.414;6.776;2022-07-29T00:58:21;3.70;;;1.57;;
9098;SDS011;4585;51.414;6.776;2022-07-29T01:00:47;5.20;;;1.67;;
9098;SDS011;4585;51.414;6.776;2022-07-29T01:03:13;2.10;;;1.40;;
9098;SDS011;4585;51.414;6.776;2022-07-29T01:05:38;2.20;;;1.30;;
9098;SDS011;4585;51.414;6.776;2022-07-29T01:08:06;4.47;;;1.47;;
9098;SDS011;4585;51.414;6.776;2022-07-29T01:10:32;1.33;;;1.20;;
9098;SDS011;4585;51.414;6.776;2022-07-29T01:12:59;3.70;;;1.37;;
9098;SDS011;4585;51.414;6.776;2022-07-29T01:15:26;2.60;;;1.40;;
9098;SDS011;4585;51.414;6.776;2022-07-29T01:23:45;1.43;;;1.20;;
9098;SDS011;4585;51.414;6.776;2022-07-29T01:26:37;2.27;;;1.20;;
9098;SDS011;4585;51.414;6.776;2022-07-29T01:31:54;1.40;;;1.23;;
9098;SDS011;4585;51.414;6.776;2022-07-29T01:34:25;2.40;;;1.40;;
9098;SDS011;4585;51.414;6.776;2022-07-29T01:39:45;2.13;;;1.23;;
9098;SDS011;4585;51.414;6.776;2022-07-29T01:44:57;2.70;;;1.20;;
9098;SDS011;4585;51.414;6.776;2022-07-29T01:47:35;2.07;;;1.30;;
9098;SDS011;4585;51.414;6.776;2022-07-29T01:50:06;3.57;;;1.07;;
9098;SDS011;4585;51.414;6.776;2022-07-29T01:52:46;3.67;;;1.53;;
9098;SDS011;4585;51.414;6.776;2022-07-29T01:55:17;2.50;;;1.33;;
9098;SDS011;4585;51.414;6.776;2022-07-29T01:57:48;3.10;;;1.43;;
9098;SDS011;4585;51.414;6.776;2022-07-29T02:00:14;1.40;;;1.30;;
9098;SDS011;4585;51.414;6.776;2022-07-29T02:02:42;7.90;;;1.30;;
9098;SDS011;4585;51.414;6.776;2022-07-29T02:05:10;1.53;;;1.43;;
9098;SDS011;4585;51.414;6.776;2022-07-29T02:07:39;1.93;;;1.37;;
9098;SDS011;4585;51.414;6.776;2022-07-29T02:10:07;2.00;;;1.40;;
9098;SDS011;4585;51.414;6.776;2022-07-29T02:12:35;2.17;;;1.50;;
9098;SDS011;4585;51.414;6.776;2022-07-29T02:15:03;1.70;;;1.20;;
9098;SDS011;4585;51.414;6.776;2022-07-29T02:17:33;2.17;;;1.20;;
9098;SDS011;4585;51.414;6.776;2022-07-29T02:20:06;3.40;;;1.50;;
9098;SDS011;4585;51.414;6.776;2022-07-29T02:22:33;2.97;;;1.50;;
9098;SDS011;4585;51.414;6.776;2022-07-29T02:25:02;2.27;;;1.37;;
9098;SDS011;4585;51.414;6.776;2022-07-29T02:27:28;3.13;;;1.50;;
9098;SDS011;4585;51.414;6.776;2022-07-29T02:29:55;2.53;;;1.30;;
9098;SDS011;4585;51.414;6.776;2022-07-29T02:32:23;1.27;;;1.17;;
9098;SDS011;4585;51.414;6.776;2022-07-29T02:34:51;4.00;;;1.73;;
9098;SDS011;4585;51.414;6.776;2022-07-29T02:37:17;1.33;;;1.23;;
9098;SDS011;4585;51.414;6.776;2022-07-29T02:39:44;5.97;;;1.63;;
9098;SDS011;4585;51.414;6.776;2022-07-29T02:42:13;2.70;;;1.30;;
9098;SDS011;4585;51.414;6.776;2022-07-29T02:44:42;2.30;;;1.40;;
9098;SDS011;4585;51.414;6.776;2022-07-29T02:49:56;2.73;;;1.50;;
9098;SDS011;4585;51.414;6.776;2022-07-29T02:52:47;8.30;;;1.50;;
9098;SDS011;4585;51.414;6.776;2022-07-29T03:00:28;3.30;;;1.40;;
9098;SDS011;4585;51.414;6.776;2022-07-29T03:02:56;2.13;;;1.33;;
9098;SDS011;4585;51.414;6.776;2022-07-29T03:05:24;2.03;;;1.50;;
9098;SDS011;4585;51.414;6.776;2022-07-29T03:07:55;1.70;;;1.13;;
9098;SDS011;4585;51.414;6.776;2022-07-29T03:10:25;3.23;;;1.27;;
9098;SDS011;4585;51.414;6.776;2022-07-29T03:12:51;1.87;;;1.37;;
9098;SDS011;4585;51.414;6.776;2022-07-29T03:15:18;3.73;;;1.40;;
9098;SDS011;4585;51.414;6.776;2022-07-29T03:17:45;2.73;;;1.23;;
9098;SDS011;4585;51.414;6.776;2022-07-29T03:20:11;4.13;;;1.40;;
9098;SDS011;4585;51.414;6.776;2022-07-29T03:22:42;2.47;;;1.53;;
9098;SDS011;4585;51.414;6.776;2022-07-29T03:25:12;2.47;;;1.43;;
9098;SDS011;4585;51.414;6.776;2022-07-29T03:27:38;3.30;;;1.97;;
9098;SDS011;4585;51.414;6.776;2022-07-29T03:30:05;3.40;;;1.47;;
9098;SDS011;4585;51.414;6.776;2022-07-29T03:32:32;2.67;;;1.30;;
9098;SDS011;4585;51.414;6.776;2022-07-29T03:34:58;4.17;;;1.20;;
9098;SDS011;4585;51.414;6.776;2022-07-29T03:37:24;4.23;;;1.20;;
9098;SDS011;4585;51.414;6.776;2022-07-29T03:39:50;4.57;;;1.30;;
9098;SDS011;4585;51.414;6.776;2022-07-29T03:42:18;5.23;;;1.30;;
9098;SDS011;4585;51.414;6.776;2022-07-29T03:44:47;3.37;;;1.50;;
9098;SDS011;4585;51.414;6.776;2022-07-29T03:47:14;1.80;;;1.23;;
9098;SDS011;4585;51.414;6.776;2022-07-29T03:49:41;2.73;;;1.50;;
9098;SDS011;4585;51.414;6.776;2022-07-29T03:52:09;3.67;;;1.60;;
9098;SDS011;4585;51.414;6.776;2022-07-29T03:54:35;2.43;;;1.63;;
9098;SDS011;4585;51.414;6.776;2022-07-29T03:57:01;6.43;;;2.00;;
9098;SDS011;4585;51.414;6.776;2022-07-29T03:59:28;4.30;;;1.97;;
9098;SDS011;4585;51.414;6.776;2022-07-29T04:01:57;6.93;;;2.30;;
9098;SDS011;4585;51.414;6.776;2022-07-29T04:04:24;3.13;;;1.67;;
9098;SDS011;4585;51.414;6.776;2022-07-29T04:06:50;1.90;;;1.50;;
9098;SDS011;4585;51.414;6.776;2022-07-29T04:09:16;5.53;;;1.70;;
9098;SDS011;4585;51.414;6.776;2022-07-29T04:11:42;2.93;;;1.67;;
9098;SDS011;4585;51.414;6.776;2022-07-29T04:14:07;3.70;;;1.80;;
9098;SDS011;4585;51.414;6.776;2022-07-29T04:16:33;2.20;;;1.67;;
9098;SDS011;4585;51.414;6.776;2022-07-29T04:18:59;3.03;;;1.90;;
9098;SDS011;4585;51.414;6.776;2022-07-29T04:21:24;3.70;;;2.00;;
9098;SDS011;4585;51.414;6.776;2022-07-29T04:23:50;6.33;;;2.07;;
9098;SDS011;4585;51.414;6.776;2022-07-29T04:26:17;5.30;;;2.07;;
9098;SDS011;4585;51.414;6.776;2022-07-29T04:28:44;6.57;;;2.27;;
9098;SDS011;4585;51.414;6.776;2022-07-29T04:31:10;3.10;;;1.93;;
9098;SDS011;4585;51.414;6.776;2022-07-29T04:33:37;6.00;;;2.20;;
9098;SDS011;4585;51.414;6.776;2022-07-29T04:36:03;3.73;;;2.07;;
9098;SDS011;4585;51.414;6.776;2022-07-29T04:38:29;5.27;;;2.30;;
9098;SDS011;4585;51.414;6.776;2022-07-29T04:40:54;3.07;;;2.10;;
9098;SDS011;4585;51.414;6.776;2022-07-29T04:43:20;4.83;;;2.30;;
9098;SDS011;4585;51.414;6.776;2022-07-29T04:45:46;9.27;;;2.17;;
9098;SDS011;4585;51.414;6.776;2022-07-29T04:48:11;3.43;;;2.20;;
9098;SDS011;4585;51.414;6.776;2022-07-29T04:50:37;4.80;;;2.27;;
9098;SDS011;4585;51.414;6.776;2022-07-29T04:53:04;4.53;;;2.10;;
9098;SDS011;4585;51.414;6.776;2022-07-29T04:55:30;3.57;;;2.00;;
9098;SDS011;4585;51.414;6.776;2022-07-29T04:57:56;4.03;;;1.90;;
9098;SDS011;4585;51.414;6.776;2022-07-29T05:00:21;3.77;;;2.00;;
9098;SDS011;4585;51.414;6.776;2022-07-29T05:02:48;2.50;;;1.70;;
9098;SDS011;4585;51.414;6.776;2022-07-29T05:05:14;5.73;;;1.90;;
9098;SDS011;4585;51.414;6.776;2022-07-29T05:07:40;3.20;;;1.80;;
9098;SDS011;4585;51.414;6.776;2022-07-29T05:10:06;3.87;;;2.00;;
9098;SDS011;4585;51.414;6.776;2022-07-29T05:12:32;2.60;;;2.20;;
9098;SDS011;4585;51.414;6.776;2022-07-29T05:14:58;3.23;;;1.80;;
9098;SDS011;4585;51.414;6.776;2022-07-29T05:17:24;3.53;;;2.27;;
9098;SDS011;4585;51.414;6.776;2022-07-29T05:19:50;3.10;;;2.17;;
9098;SDS011;4585;51.414;6.776;2022-07-29T05:22:17;2.27;;;1.90;;
9098;SDS011;4585;51.414;6.776;2022-07-29T05:24:43;4.50;;;2.00;;
9098;SDS011;4585;51.414;6.776;2022-07-29T05:27:09;2.93;;;1.87;;
9098;SDS011;4585;51.414;6.776;2022-07-29T05:29:35;4.13;;;2.10;;
9098;SDS011;4585;51.414;6.776;2022-07-29T05:32:01;4.57;;;2.20;;
9098;SDS011;4585;51.414;6.776;2022-07-29T05:34:27;4.70;;;2.40;;
9098;SDS011;4585;51.414;6.776;2022-07-29T05:36:53;3.03;;;1.87;;
9098;SDS011;4585;51.414;6.776;2022-07-29T05:39:19;4.87;;;2.33;;
9098;SDS011;4585;51.414;6.776;2022-07-29T05:41:44;3.30;;;2.17;;
9098;SDS011;4585;51.414;6.776;2022-07-29T05:44:10;5.70;;;2.57;;
9098;SDS011;4585;51.414;6.776;2022-07-29T05:46:38;3.07;;;2.33;;
9098;SDS011;4585;51.414;6.776;2022-07-29T05:49:03;2.97;;;2.00;;
9098;SDS011;4585;51.414;6.776;2022-07-29T05:51:31;3.77;;;2.60;;
9098;SDS011;4585;51.414;6.776;2022-07-29T05:53:57;3.10;;;2.33;;
9098;SDS011;4585;51.414;6.776;2022-07-29T05:56:23;2.87;;;2.10;;
9098;SDS011;4585;51.414;6.776;2022-07-29T05:58:49;6.23;;;2.40;;
9098;SDS011;4585;51.414;6.776;2022-07-29T06:01:14;4.83;;;2.27;;
9098;SDS011;4585;51.414;6.776;2022-07-29T06:03:41;4.40;;;2.33;;
9098;SDS011;4585;51.414;6.776;2022-07-29T06:06:07;3.53;;;2.53;;
9098;SDS011;4585;51.414;6.776;2022-07-29T06:08:33;3.77;;;2.30;;
9098;SDS011;4585;51.414;6.776;2022-07-29T06:11:01;2.83;;;2.07;;
9098;SDS011;4585;51.414;6.776;2022-07-29T06:13:28;3.67;;;2.37;;
9098;SDS011;4585;51.414;6.776;2022-07-29T06:15:54;2.63;;;2.40;;
9098;SDS011;4585;51.414;6.776;2022-07-29T06:18:20;8.93;;;2.30;;
9098;SDS011;4585;51.414;6.776;2022-07-29T06:20:48;4.80;;;2.40;;
9098;SDS011;4585;51.414;6.776;2022-07-29T06:23:15;2.70;;;2.37;;
9098;SDS011;4585;51.414;6.776;2022-07-29T06:25:41;3.23;;;2.47;;
9098;SDS011;4585;51.414;6.776;2022-07-29T06:28:07;7.00;;;2.90;;
9098;SDS011;4585;51.414;6.776;2022-07-29T06:30:32;6.37;;;2.73;;
9098;SDS011;4585;51.414;6.776;2022-07-29T06:32:58;7.13;;;2.80;;
9098;SDS011;4585;51.414;6.776;2022-07-29T06:35:25;4.70;;;2.40;;
9098;SDS011;4585;51.414;6.776;2022-07-29T06:37:51;5.77;;;2.63;;
9098;SDS011;4585;51.414;6.776;2022-07-29T06:40:17;10.47;;;3.00;;
9098;SDS011;4585;51.414;6.776;2022-07-29T06:43:01;2.83;;;2.47;;
9098;SDS011;4585;51.414;6.776;2022-07-29T06:45:27;3.27;;;2.90;;
9098;SDS011;4585;51.414;6.776;2022-07-29T06:47:53;3.33;;;2.63;;
9098;SDS011;4585;51.414;6.776;2022-07-29T06:50:18;5.17;;;2.90;;
9098;SDS011;4585;51.414;6.776;2022-07-29T06:52:44;4.27;;;2.80;;
9098;SDS011;4585;51.414;6.776;2022-07-29T06:55:10;4.33;;;2.87;;
9098;SDS011;4585;51.414;6.776;2022-07-29T06:57:35;4.07;;;2.87;;
9098;SDS011;4585;51.414;6.776;2022-07-29T07:00:01;10.60;;;2.90;;
9098;SDS011;4585;51.414;6.776;2022-07-29T07:02:29;3.10;;;2.60;;
9098;SDS011;4585;51.414;6.776;2022-07-29T07:04:55;5.07;;;3.07;;
9098;SDS011;4585;51.414;6.776;2022-07-29T07:07:21;7.40;;;3.30;;
9098;SDS011;4585;51.414;6.776;2022-07-29T07:09:46;5.43;;;3.07;;
9098;SDS011;4585;51.414;6.776;2022-07-29T07:12:12;5.80;;;2.60;;
9098;SDS011;4585;51.414;6.776;2022-07-29T07:14:38;3.90;;;2.93;;
9098;SDS011;4585;51.414;6.776;2022-07-29T07:17:04;5.60;;;3.00;;
9098;SDS011;4585;51.414;6.776;2022-07-29T07:19:32;3.53;;;2.77;;
9098;SDS011;4585;51.414;6.776;2022-07-29T07:21:57;4.50;;;2.93;;
9098;SDS011;4585;51.414;6.776;2022-07-29T07:24:23;7.23;;;3.60;;
9098;SDS011;4585;51.414;6.776;2022-07-29T07:26:49;5.40;;;3.00;;
9098;SDS011;4585;51.414;6.776;2022-07-29T07:29:14;4.57;;;2.67;;
9098;SDS011;4585;51.414;6.776;2022-07-29T07:31:40;4.70;;;2.70;;
9098;SDS011;4585;51.414;6.776;2022-07-29T07:34:06;3.67;;;2.93;;
9098;SDS011;4585;51.414;6.776;2022-07-29T07:36:32;7.17;;;3.40;;
9098;SDS011;4585;51.414;6.776;2022-07-29T07:38:57;8.20;;;3.30;;
9098;SDS011;4585;51.414;6.776;2022-07-29T07:41:23;4.70;;;2.97;;
9098;SDS011;4585;51.414;6.776;2022-07-29T07:43:49;5.93;;;3.30;;
9098;SDS011;4585;51.414;6.776;2022-07-29T07:46:15;6.20;;;3.00;;
9098;SDS011;4585;51.414;6.776;2022-07-29T07:48:41;4.60;;;3.17;;
9098;SDS011;4585;51.414;6.776;2022-07-29T07:51:06;6.40;;;2.70;;
9098;SDS011;4585;51.414;6.776;2022-07-29T07:53:32;3.67;;;2.97;;
9098;SDS011;4585;51.414;6.776;2022-07-29T07:55:58;5.67;;;3.07;;
9098;SDS011;4585;51.414;6.776;2022-07-29T07:58:25;5.83;;;2.83;;
9098;SDS011;4585;51.414;6.776;2022-07-29T08:00:51;3.30;;;2.67;;
9098;SDS011;4585;51.414;6.776;2022-07-29T08:03:16;5.50;;;3.03;;
9098;SDS011;4585;51.414;6.776;2022-07-29T08:05:42;4.20;;;2.80;;
9098;SDS011;4585;51.414;6.776;2022-07-29T08:08:08;3.87;;;2.97;;
9098;SDS011;4585;51.414;6.776;2022-07-29T08:10:34;3.97;;;2.80;;
9098;SDS011;4585;51.414;6.776;2022-07-29T08:13:18;7.53;;;3.20;;
9098;SDS011;4585;51.414;6.776;2022-07-29T08:15:45;6.40;;;3.20;;
9098;SDS011;4585;51.414;6.776;2022-07-29T08:18:11;4.37;;;3.37;;
9098;SDS011;4585;51.414;6.776;2022-07-29T08:20:38;5.67;;;3.13;;
9098;SDS011;4585;51.414;6.776;2022-07-29T08:23:04;8.70;;;3.80;;
9098;SDS011;4585;51.414;6.776;2022-07-29T08:25:33;5.03;;;3.23;;
9098;SDS011;4585;51.414;6.776;2022-07-29T08:28:01;5.57;;;3.40;;
9098;SDS011;4585;51.414;6.776;2022-07-29T08:30:26;3.33;;;3.00;;
9098;SDS011;4585;51.414;6.776;2022-07-29T08:32:52;5.17;;;3.60;;
9098;SDS011;4585;51.414;6.776;2022-07-29T08:35:21;4.73;;;3.43;;
9098;SDS011;4585;51.414;6.776;2022-07-29T08:37:48;5.17;;;3.57;;
9098;SDS011;4585;51.414;6.776;2022-07-29T08:40:13;4.80;;;3.63;;
9098;SDS011;4585;51.414;6.776;2022-07-29T08:42:39;8.17;;;4.00;;
9098;SDS011;4585;51.414;6.776;2022-07-29T08:45:06;7.03;;;3.63;;
9098;SDS011;4585;51.414;6.776;2022-07-29T08:47:32;7.80;;;4.07;;
9098;SDS011;4585;51.414;6.776;2022-07-29T08:49:58;5.53;;;3.67;;
9098;SDS011;4585;51.414;6.776;2022-07-29T08:52:25;6.63;;;4.20;;
9098;SDS011;4585;51.414;6.776;2022-07-29T08:54:52;10.57;;;4.07;;
9098;SDS011;4585;51.414;6.776;2022-07-29T08:57:19;12.17;;;4.40;;
9098;SDS011;4585;51.414;6.776;2022-07-29T08:59:47;7.30;;;4.17;;
9098;SDS011;4585;51.414;6.776;2022-07-29T09:02:20;5.93;;;4.60;;
9098;SDS011;4585;51.414;6.776;2022-07-29T09:04:48;7.07;;;4.30;;
9098;SDS011;4585;51.414;6.776;2022-07-29T09:07:15;6.73;;;3.73;;
9098;SDS011;4585;51.414;6.776;2022-07-29T09:09:42;6.73;;;3.83;;
9098;SDS011;4585;51.414;6.776;2022-07-29T09:12:08;6.47;;;4.13;;
9098;SDS011;4585;51.414;6.776;2022-07-29T09:14:36;7.73;;;3.77;;
9098;SDS011;4585;51.414;6.776;2022-07-29T09:17:03;5.23;;;3.80;;
9098;SDS011;4585;51.414;6.776;2022-07-29T09:19:31;6.47;;;4.20;;
9098;SDS011;4585;51.414;6.776;2022-07-29T09:22:00;8.37;;;4.03;;
9098;SDS011;4585;51.414;6.776;2022-07-29T09:24:40;6.67;;;3.87;;
9098;SDS011;4585;51.414;6.776;2022-07-29T09:29:44;9.00;;;4.30;;
9098;SDS011;4585;51.414;6.776;2022-07-29T09:32:10;12.37;;;4.90;;
9098;SDS011;4585;51.414;6.776;2022-07-29T09:34:37;7.30;;;4.57;;
9098;SDS011;4585;51.414;6.776;2022-07-29T09:37:03;10.73;;;5.00;;
9098;SDS011;4585;51.414;6.776;2022-07-29T09:42:00;9.20;;;4.53;;
9098;SDS011;4585;51.414;6.776;2022-07-29T09:44:40;8.37;;;4.03;;
9098;SDS011;4585;51.414;6.776;2022-07-29T09:47:13;5.40;;;3.73;;
9098;SDS011;4585;51.414;6.776;2022-07-29T09:49:58;6.77;;;4.00;;
9098;SDS011;4585;51.414;6.776;2022-07-29T09:52:25;7.23;;;4.40;;
9098;SDS011;4585;51.414;6.776;2022-07-29T09:54:52;4.77;;;3.63;;
9098;SDS011;4585;51.414;6.776;2022-07-29T09:57:24;5.07;;;3.90;;
9098;SDS011;4585;51.414;6.776;2022-07-29T09:59:57;5.00;;;4.00;;
9098;SDS011;4585;51.414;6.776;2022-07-29T10:02:27;8.23;;;4.20;;
9098;SDS011;4585;51.414;6.776;2022-07-29T10:04:54;6.03;;;3.77;;
9098;SDS011;4585;51.414;6.776;2022-07-29T10:07:20;6.50;;;4.03;;
9098;SDS011;4585;51.414;6.776;2022-07-29T10:09:52;7.27;;;4.30;;
9098;SDS011;4585;51.414;6.776;2022-07-29T10:12:23;6.87;;;4.40;;
9098;SDS011;4585;51.414;6.776;2022-07-29T10:14:49;6.83;;;4.00;;
9098;SDS011;4585;51.414;6.776;2022-07-29T10:17:16;12.50;;;4.40;;
9098;SDS011;4585;51.414;6.776;2022-07-29T10:19:43;6.10;;;4.07;;
9098;SDS011;4585;51.414;6.776;2022-07-29T10:22:09;7.30;;;4.13;;
9098;SDS011;4585;51.414;6.776;2022-07-29T10:24:36;5.13;;;4.07;;
9098;SDS011;4585;51.414;6.776;2022-07-29T10:27:05;8.90;;;4.07;;
9098;SDS011;4585;51.414;6.776;2022-07-29T10:29:31;9.60;;;4.37;;
9098;SDS011;4585;51.414;6.776;2022-07-29T10:32:06;7.13;;;4.27;;
9098;SDS011;4585;51.414;6.776;2022-07-29T10:40:47;5.33;;;3.17;;
9098;SDS011;4585;51.414;6.776;2022-07-29T10:44:34;6.63;;;3.53;;
9098;SDS011;4585;51.414;6.776;2022-07-29T10:46:45;9.33;;;3.20;;
9098;SDS011;4585;51.414;6.776;2022-07-29T10:49:13;6.87;;;3.20;;
9098;SDS011;4585;51.414;6.776;2022-07-29T10:57:17;7.17;;;3.10;;
9098;SDS011;4585;51.414;6.776;2022-07-29T11:05:02;5.87;;;2.93;;
9098;SDS011;4585;51.414;6.776;2022-07-29T11:07:30;7.73;;;3.50;;
9098;SDS011;4585;51.414;6.776;2022-07-29T11:15:09;4.70;;;2.90;;
9098;SDS011;4585;51.414;6.776;2022-07-29T11:20:41;4.90;;;2.17;;
9098;SDS011;4585;51.414;6.776;2022-07-29T11:34:29;7.07;;;2.20;;
9098;SDS011;4585;51.414;6.776;2022-07-29T11:39:42;3.53;;;2.80;;
9098;SDS011;4585;51.414;6.776;2022-07-29T11:47:24;5.63;;;2.38;;
9098;SDS011;4585;51.414;6.776;2022-07-29T11:49:52;9.20;;;2.70;;
9098;SDS011;4585;51.414;6.776;2022-07-29T11:52:19;5.95;;;2.72;;
9098;SDS011;4585;51.414;6.776;2022-07-29T11:54:50;6.15;;;2.75;;
9098;SDS011;4585;51.414;6.776;2022-07-29T11:57:17;6.63;;;3.10;;
9098;SDS011;4585;51.414;6.776;2022-07-29T11:59:44;3.95;;;2.90;;
9098;SDS011;4585;51.414;6.776;2022-07-29T12:02:11;6.38;;;3.30;;
9098;SDS011;4585;51.414;6.776;2022-07-29T12:07:32;10.77;;;3.70;;
9098;SDS011;4585;51.414;6.776;2022-07-29T12:09:58;5.60;;;3.40;;
9098;SDS011;4585;51.414;6.776;2022-07-29T12:12:25;7.47;;;3.40;;
9098;SDS011;4585;51.414;6.776;2022-07-29T12:14:50;9.57;;;3.58;;
9098;SDS011;4585;51.414;6.776;2022-07-29T12:19:55;7.32;;;3.05;;
9098;SDS011;4585;51.414;6.776;2022-07-29T12:22:37;4.10;;;2.80;;
9098;SDS011;4585;51.414;6.776;2022-07-29T12:25:12;3.33;;;2.50;;
9098;SDS011;4585;51.414;6.776;2022-07-29T12:27:43;8.77;;;3.42;;
9098;SDS011;4585;51.414;6.776;2022-07-29T12:30:10;12.85;;;3.65;;
9098;SDS011;4585;51.414;6.776;2022-07-29T12:32:38;3.50;;;2.78;;
9098;SDS011;4585;51.414;6.776;2022-07-29T12:35:06;4.97;;;2.97;;
9098;SDS011;4585;51.414;6.776;2022-07-29T12:37:34;6.47;;;2.70;;
9098;SDS011;4585;51.414;6.776;2022-07-29T12:40:02;3.63;;;2.50;;
9098;SDS011;4585;51.414;6.776;2022-07-29T12:42:29;8.35;;;2.67;;
9098;SDS011;4585;51.414;6.776;2022-07-29T12:44:55;5.00;;;2.63;;
9098;SDS011;4585;51.414;6.776;2022-07-29T12:47:21;2.97;;;2.35;;
9098;SDS011;4585;51.414;6.776;2022-07-29T12:49:48;4.80;;;2.63;;
9098;SDS011;4585;51.414;6.776;2022-07-29T12:52:28;4.53;;;2.67;;
9098;SDS011;4585;51.414;6.776;2022-07-29T12:54:55;7.88;;;2.70;;
9098;SDS011;4585;51.414;6.776;2022-07-29T12:57:22;8.32;;;2.60;;
9098;SDS011;4585;51.414;6.776;2022-07-29T13:00:03;5.72;;;2.72;;
9098;SDS011;4585;51.414;6.776;2022-07-29T13:02:29;7.85;;;3.03;;
9098;SDS011;4585;51.414;6.776;2022-07-29T13:04:58;7.30;;;2.63;;
9098;SDS011;4585;51.414;6.776;2022-07-29T13:07:26;10.75;;;2.90;;
9098;SDS011;4585;51.414;6.776;2022-07-29T13:09:54;6.03;;;2.97;;
9098;SDS011;4585;51.414;6.776;2022-07-29T13:15:39;4.47;;;2.83;;
9098;SDS011;4585;51.414;6.776;2022-07-29T13:20:54;4.45;;;2.63;;
9098;SDS011;4585;51.414;6.776;2022-07-29T13:23:20;3.38;;;2.35;;
9098;SDS011;4585;51.414;6.776;2022-07-29T13:25:46;5.53;;;2.78;;
9098;SDS011;4585;51.414;6.776;2022-07-29T13:28:11;5.18;;;2.92;;
9098;SDS011;4585;51.414;6.776;2022-07-29T13:30:39;4.03;;;2.47;;
9098;SDS011;4585;51.414;6.776;2022-07-29T13:33:05;3.15;;;2.85;;
9098;SDS011;4585;51.414;6.776;2022-07-29T13:35:31;7.20;;;2.85;;
9098;SDS011;4585;51.414;6.776;2022-07-29T13:37:57;4.85;;;3.42;;
9098;SDS011;4585;51.414;6.776;2022-07-29T13:40:23;5.68;;;2.70;;
9098;SDS011;4585;51.414;6.776;2022-07-29T13:42:49;5.03;;;2.75;;
9098;SDS011;4585;51.414;6.776;2022-07-29T13:45:15;6.22;;;3.00;;
9098;SDS011;4585;51.414;6.776;2022-07-29T13:47:41;5.57;;;2.20;;
9098;SDS011;4585;51.414;6.776;2022-07-29T13:50:07;5.72;;;3.00;;
9098;SDS011;4585;51.414;6.776;2022-07-29T13:52:35;6.65;;;2.72;;
9098;SDS011;4585;51.414;6.776;2022-07-29T13:55:01;5.50;;;3.42;;
9098;SDS011;4585;51.414;6.776;2022-07-29T13:57:28;6.45;;;3.17;;
9098;SDS011;4585;51.414;6.776;2022-07-29T13:59:54;4.65;;;3.03;;
9098;SDS011;4585;51.414;6.776;2022-07-29T14:02:20;9.57;;;2.97;;
9098;SDS011;4585;51.414;6.776;2022-07-29T14:04:46;7.57;;;2.50;;
9098;SDS011;4585;51.414;6.776;2022-07-29T14:07:12;7.97;;;2.78;;
9098;SDS011;4585;51.414;6.776;2022-07-29T14:09:38;9.48;;;2.80;;
9098;SDS011;4585;51.414;6.776;2022-07-29T14:12:04;6.32;;;2.70;;
9098;SDS011;4585;51.414;6.776;2022-07-29T14:14:30;6.78;;;2.50;;
9098;SDS011;4585;51.414;6.776;2022-07-29T14:16:57;2.80;;;2.28;;
9098;SDS011;4585;51.414;6.776;2022-07-29T14:19:23;5.43;;;2.90;;
9098;SDS011;4585;51.414;6.776;2022-07-29T14:21:49;4.93;;;2.67;;
9098;SDS011;4585;51.414;6.776;2022-07-29T14:24:15;9.05;;;2.95;;
9098;SDS011;4585;51.414;6.776;2022-07-29T14:26:41;5.88;;;2.60;;
9098;SDS011;4585;51.414;6.776;2022-07-29T14:29:07;4.00;;;2.65;;
9098;SDS011;4585;51.414;6.776;2022-07-29T14:31:32;4.50;;;2.60;;
9098;SDS011;4585;51.414;6.776;2022-07-29T14:33:58;3.55;;;2.58;;
9098;SDS011;4585;51.414;6.776;2022-07-29T14:36:24;8.68;;;3.08;;
9098;SDS011;4585;51.414;6.776;2022-07-29T14:38:49;3.90;;;2.30;;
9098;SDS011;4585;51.414;6.776;2022-07-29T14:41:15;4.70;;;2.22;;
9098;SDS011;4585;51.414;6.776;2022-07-29T14:43:41;3.55;;;2.33;;
9098;SDS011;4585;51.414;6.776;2022-07-29T14:46:07;5.57;;;2.50;;
9098;SDS011;4585;51.414;6.776;2022-07-29T14:48:32;6.32;;;2.55;;
9098;SDS011;4585;51.414;6.776;2022-07-29T14:50:58;4.03;;;2.20;;
9098;SDS011;4585;51.414;6.776;2022-07-29T14:53:24;7.85;;;2.53;;
9098;SDS011;4585;51.414;6.776;2022-07-29T14:55:50;3.92;;;2.40;;
9098;SDS011;4585;51.414;6.776;2022-07-29T14:58:16;5.53;;;3.00;;
9098;SDS011;4585;51.414;6.776;2022-07-29T15:00:41;5.03;;;1.98;;
9098;SDS011;4585;51.414;6.776;2022-07-29T15:03:07;2.95;;;2.08;;
9098;SDS011;4585;51.414;6.776;2022-07-29T15:05:35;3.85;;;2.50;;
9098;SDS011;4585;51.414;6.776;2022-07-29T15:08:01;5.22;;;1.90;;
9098;SDS011;4585;51.414;6.776;2022-07-29T15:10:28;6.45;;;2.80;;
9098;SDS011;4585;51.414;6.776;2022-07-29T15:12:54;4.45;;;2.42;;
9098;SDS011;4585;51.414;6.776;2022-07-29T15:15:20;3.50;;;2.40;;
9098;SDS011;4585;51.414;6.776;2022-07-29T15:17:46;6.22;;;2.65;;
9098;SDS011;4585;51.414;6.776;2022-07-29T15:20:12;6.32;;;2.45;;
9098;SDS011;4585;51.414;6.776;2022-07-29T15:22:38;4.65;;;2.58;;
9098;SDS011;4585;51.414;6.776;2022-07-29T15:25:06;6.78;;;2.60;;
9098;SDS011;4585;51.414;6.776;2022-07-29T15:27:32;3.60;;;2.42;;
9098;SDS011;4585;51.414;6.776;2022-07-29T15:29:57;4.53;;;2.13;;
9098;SDS011;4585;51.414;6.776;2022-07-29T15:32:23;7.72;;;2.40;;
9098;SDS011;4585;51.414;6.776;2022-07-29T15:34:49;5.57;;;2.20;;
9098;SDS011;4585;51.414;6.776;2022-07-29T15:37:15;5.65;;;2.40;;
9098;SDS011;4585;51.414;6.776;2022-07-29T15:39:40;7.88;;;2.33;;
9098;SDS011;4585;51.414;6.776;2022-07-29T15:42:06;6.22;;;2.25;;
9098;SDS011;4585;51.414;6.776;2022-07-29T15:44:32;7.40;;;2.22;;
9098;SDS011;4585;51.414;6.776;2022-07-29T15:46:58;5.05;;;2.40;;
9098;SDS011;4585;51.414;6.776;2022-07-29T15:49:38;11.68;;;2.80;;
9098;SDS011;4585;51.414;6.776;2022-07-29T15:52:05;6.15;;;1.90;;
9098;SDS011;4585;51.414;6.776;2022-07-29T15:54:33;5.93;;;2.30;;
9098;SDS011;4585;51.414;6.776;2022-07-29T15:57:00;4.88;;;2.10;;
9098;SDS011;4585;51.414;6.776;2022-07-29T15:59:25;3.75;;;1.98;;
9098;SDS011;4585;51.414;6.776;2022-07-29T16:01:52;2.35;;;1.90;;
9098;SDS011;4585;51.414;6.776;2022-07-29T16:04:18;6.40;;;2.00;;
9098;SDS011;4585;51.414;6.776;2022-07-29T16:06:44;3.05;;;1.65;;
9098;SDS011;4585;51.414;6.776;2022-07-29T16:09:11;3.67;;;1.60;;
9098;SDS011;4585;51.414;6.776;2022-07-29T16:11:38;4.05;;;1.90;;
9098;SDS011;4585;51.414;6.776;2022-07-29T16:14:04;5.15;;;2.10;;
9098;SDS011;4585;51.414;6.776;2022-07-29T16:16:30;2.20;;;1.80;;
9098;SDS011;4585;51.414;6.776;2022-07-29T16:18:55;6.53;;;2.47;;
9098;SDS011;4585;51.414;6.776;2022-07-29T16:21:21;8.02;;;2.15;;
9098;SDS011;4585;51.414;6.776;2022-07-29T16:23:47;5.40;;;1.80;;
9098;SDS011;4585;51.414;6.776;2022-07-29T16:26:13;4.95;;;2.00;;
9098;SDS011;4585;51.414;6.776;2022-07-29T16:28:39;7.18;;;2.00;;
9098;SDS011;4585;51.414;6.776;2022-07-29T16:31:05;3.80;;;2.00;;
9098;SDS011;4585;51.414;6.776;2022-07-29T16:33:31;4.15;;;2.15;;
9098;SDS011;4585;51.414;6.776;2022-07-29T16:35:57;3.45;;;2.10;;
9098;SDS011;4585;51.414;6.776;2022-07-29T16:38:22;6.38;;;2.55;;
9098;SDS011;4585;51.414;6.776;2022-07-29T16:40:48;4.53;;;2.05;;